^^
Station Historical Data
Daily Summary for January 18, 2017 Units:  English    Metric   Both
« Previous Day
Next Day »
Daily Weekly Monthly Yearly Custom
  High: Low: Average:
Temperature: 45.3 °F 35.7 °F 40.1 °F
Dew Point: 41.7 °F 34.4 °F 37.9 °F
Humidity: 96 % 84 % 92 %
Wind Speed: 5.5 mph 0.0 mph 0.8 mph
Wind Gust: 10.4 mph - -
Wind:- - SE
Pressure: 30.07 in 29.91 in -
Precipitation: 0.05 in    
Historical Graphs
 
 
Tabular Data for January 18, 2017
Time Temperature Dew Point Pressure Wind Wind Speed Wind Gust Humidity Rainfall Rate (Hourly) solar Conditions
00:03 36.8 °F 35.5 °F 29.95 in NNE 0.6 mph 3.5 mph 95 % 0.00 in 0.0 W/m2 RA
00:08 36.8 °F 35.5 °F 29.93 in Calm     95 % 0.01 in 0.0 W/m2 RA
00:13 36.7 °F 35.4 °F 29.93 in Calm     95 % 0.02 in 0.0 W/m2 RA
00:18 36.7 °F 35.4 °F 29.93 in Calm     95 % 0.02 in 0.0 W/m2 RA
00:23 36.7 °F 35.4 °F 29.93 in Calm     95 % 0.03 in 0.0 W/m2 RA
00:28 36.7 °F 35.4 °F 29.93 in NNE 2.0 mph 3.5 mph 95 % 0.03 in 0.0 W/m2 RA
00:33 36.8 °F 35.5 °F 29.93 in NE 1.3 mph 3.5 mph 95 % 0.04 in 0.0 W/m2 RA
00:38 36.8 °F 35.5 °F 29.93 in NNE 3.5 mph 4.6 mph 95 % 0.04 in 0.0 W/m2 RA
00:43 36.7 °F 35.4 °F 29.92 in Calm     95 % 0.04 in 0.0 W/m2
00:48 36.7 °F 35.4 °F 29.92 in NE 3.4 mph 5.8 mph 95 % 0.04 in 0.0 W/m2
00:53 36.6 °F 35.3 °F 29.92 in NNE 3.0 mph 4.6 mph 95 % 0.04 in 0.0 W/m2
00:58 36.5 °F 35.2 °F 29.93 in NNE 2.8 mph 8.0 mph 95 % 0.04 in 0.0 W/m2
01:03 36.5 °F 35.2 °F 29.92 in NE 3.0 mph 5.0 mph 95 % 0.04 in 0.0 W/m2
01:08 36.4 °F 35.1 °F 29.93 in NNE 3.5 mph 4.6 mph 95 % 0.03 in 0.0 W/m2
01:13 36.4 °F 35.1 °F 29.93 in NNE 2.7 mph 4.6 mph 95 % 0.02 in 0.0 W/m2
01:18 36.3 °F 35.0 °F 29.93 in NNE 0.4 mph 2.3 mph 95 % 0.02 in 0.0 W/m2
01:23 36.3 °F 35.0 °F 29.93 in NNE 0.9 mph 3.5 mph 95 % 0.01 in 0.0 W/m2
01:28 36.2 °F 34.9 °F 29.93 in NNE 2.3 mph 3.5 mph 95 % 0.01 in 0.0 W/m2
01:33 36.3 °F 35.0 °F 29.94 in NNE 1.6 mph 3.5 mph 95 % 0.00 in 0.0 W/m2 CLR
01:38 36.3 °F 35.0 °F 29.93 in North 2.1 mph 3.5 mph 95 % 0.00 in 0.0 W/m2 CLR
01:43 36.2 °F 34.9 °F 29.93 in NNE 4.0 mph 5.8 mph 95 % 0.00 in 0.0 W/m2 CLR
01:48 36.1 °F 34.8 °F 29.93 in Calm     95 % 0.00 in 0.0 W/m2 CLR
01:53 36.2 °F 34.9 °F 29.94 in Calm     95 % 0.00 in 0.0 W/m2 CLR
01:58 36.2 °F 34.9 °F 29.94 in NNE 3.5 mph 4.6 mph 95 % 0.00 in 0.0 W/m2 CLR
02:03 36.2 °F 34.9 °F 29.94 in NNE 3.7 mph 5.0 mph 95 % 0.00 in 0.0 W/m2 CLR
02:08 36.2 °F 34.9 °F 29.94 in NNE 2.6 mph 3.5 mph 95 % 0.00 in 0.0 W/m2 CLR
02:13 36.2 °F 34.9 °F 29.94 in NNE 1.9 mph 3.5 mph 95 % 0.00 in 0.0 W/m2 CLR
02:19 36.1 °F 34.8 °F 29.94 in North 4.3 mph 4.6 mph 95 % 0.00 in 0.0 W/m2 CLR
02:23 36.1 °F 34.8 °F 29.94 in NNE 5.3 mph 6.9 mph 95 % 0.00 in 0.0 W/m2 CLR
02:29 36.0 °F 34.7 °F 29.94 in NNE 2.7 mph 4.6 mph 95 % 0.01 in 0.0 W/m2 RA
02:34 35.9 °F 34.6 °F 29.94 in NNE 3.7 mph 5.8 mph 95 % 0.01 in 0.0 W/m2 RA
02:39 35.9 °F 34.6 °F 29.93 in Calm     95 % 0.01 in 0.0 W/m2
02:44 35.9 °F 34.6 °F 29.93 in NNE 1.9 mph 3.5 mph 95 % 0.01 in 0.0 W/m2
02:49 35.9 °F 34.6 °F 29.93 in NNE 3.5 mph 4.6 mph 95 % 0.01 in 0.0 W/m2
02:54 35.9 °F 34.6 °F 29.93 in NNE 0.4 mph 2.3 mph 95 % 0.01 in 0.0 W/m2
02:59 35.9 °F 34.6 °F 29.93 in Calm   3.5 mph 95 % 0.01 in 0.0 W/m2
03:04 35.9 °F 34.6 °F 29.93 in Calm     95 % 0.01 in 0.0 W/m2
03:09 35.9 °F 34.6 °F 29.93 in Calm     95 % 0.01 in 0.0 W/m2
03:14 35.9 °F 34.6 °F 29.93 in Calm     95 % 0.01 in 0.0 W/m2
03:19 35.9 °F 34.6 °F 29.93 in NE 2.6 mph 3.5 mph 95 % 0.01 in 0.0 W/m2
03:24 35.9 °F 34.6 °F 29.92 in NNE 0.6 mph 2.3 mph 95 % 0.01 in 0.0 W/m2
03:29 35.9 °F 34.6 °F 29.93 in NE 1.9 mph 4.6 mph 95 % 0.00 in 0.0 W/m2 CLR
03:34 35.8 °F 34.5 °F 29.93 in NE 3.3 mph 4.0 mph 95 % 0.00 in 0.0 W/m2 CLR
03:39 35.9 °F 34.6 °F 29.92 in NE 0.5 mph 2.3 mph 95 % 0.00 in 0.0 W/m2 CLR
03:44 35.9 °F 34.6 °F 29.92 in NNE 2.9 mph 4.6 mph 95 % 0.00 in 0.0 W/m2 CLR
03:49 35.9 °F 34.6 °F 29.92 in NNE 1.3 mph 3.5 mph 95 % 0.00 in 0.0 W/m2 CLR
03:54 35.9 °F 34.6 °F 29.92 in NNE 1.1 mph 3.5 mph 95 % 0.00 in 0.0 W/m2 CLR
03:59 35.8 °F 34.5 °F 29.92 in Calm     95 % 0.00 in 0.0 W/m2 CLR
04:04 35.8 °F 34.5 °F 29.92 in NE 0.3 mph 2.3 mph 95 % 0.00 in 0.0 W/m2 CLR
04:09 35.8 °F 34.5 °F 29.92 in Calm     95 % 0.00 in 0.0 W/m2 CLR
04:14 35.7 °F 34.4 °F 29.92 in Calm     95 % 0.00 in 0.0 W/m2 CLR
04:19 35.7 °F 34.4 °F 29.92 in Calm     95 % 0.00 in 0.0 W/m2 CLR
04:24 35.7 °F 34.4 °F 29.91 in Calm     95 % 0.00 in 0.0 W/m2 CLR
04:29 35.7 °F 34.4 °F 29.91 in Calm     95 % 0.00 in 0.0 W/m2 CLR
04:34 35.7 °F 34.4 °F 29.91 in Calm     95 % 0.00 in 0.0 W/m2 CLR
04:39 35.7 °F 34.4 °F 29.92 in Calm     95 % 0.00 in 0.0 W/m2 CLR
04:44 35.8 °F 34.5 °F 29.92 in Calm     95 % 0.00 in 0.0 W/m2 CLR
04:49 35.8 °F 34.5 °F 29.92 in Calm     95 % 0.00 in 0.0 W/m2 CLR
04:54 35.8 °F 34.5 °F 29.92 in Calm     95 % 0.00 in 0.0 W/m2 CLR
04:59 35.7 °F 34.4 °F 29.92 in Calm     95 % 0.00 in 0.0 W/m2 CLR
05:04 35.8 °F 34.5 °F 29.92 in Calm     95 % 0.00 in 0.0 W/m2 CLR
05:09 35.7 °F 34.4 °F 29.92 in NE 0.3 mph 2.3 mph 95 % 0.00 in 0.0 W/m2 CLR
05:14 35.8 °F 34.5 °F 29.92 in Calm     95 % 0.00 in 0.0 W/m2 CLR
05:19 35.8 °F 34.5 °F 29.92 in Calm     95 % 0.00 in 0.0 W/m2 CLR
05:24 35.8 °F 34.5 °F 29.92 in Calm     95 % 0.00 in 0.0 W/m2 CLR
05:29 35.8 °F 34.5 °F 29.93 in NNE 1.2 mph 2.3 mph 95 % 0.00 in 0.0 W/m2 CLR
05:34 35.8 °F 34.5 °F 29.93 in Calm     95 % 0.00 in 0.0 W/m2 CLR
05:39 35.8 °F 34.5 °F 29.93 in Calm     95 % 0.00 in 0.0 W/m2 CLR
05:44 35.8 °F 34.5 °F 29.93 in Calm     95 % 0.00 in 0.0 W/m2 CLR
05:49 35.8 °F 34.5 °F 29.93 in Calm     95 % 0.00 in 0.0 W/m2 CLR
05:54 35.8 °F 34.5 °F 29.94 in Calm     95 % 0.00 in 0.0 W/m2 CLR
05:59 35.8 °F 34.5 °F 29.94 in Calm     95 % 0.00 in 0.0 W/m2 CLR
06:04 35.8 °F 34.5 °F 29.94 in Calm     95 % 0.00 in 0.0 W/m2 CLR
06:09 35.8 °F 34.5 °F 29.94 in Calm     95 % 0.00 in 0.0 W/m2 CLR
06:14 35.8 °F 34.5 °F 29.94 in Calm     95 % 0.00 in 0.0 W/m2 CLR
06:19 35.8 °F 34.5 °F 29.94 in Calm     95 % 0.00 in 0.0 W/m2 CLR
06:24 35.9 °F 34.6 °F 29.94 in Calm     95 % 0.00 in 0.0 W/m2 CLR
06:29 35.8 °F 34.5 °F 29.94 in Calm     95 % 0.00 in 0.0 W/m2 CLR
06:35 35.8 °F 34.5 °F 29.94 in Calm   1.2 mph 95 % 0.00 in 0.0 W/m2 CLR
06:40 35.8 °F 34.5 °F 29.94 in Calm     95 % 0.00 in 0.0 W/m2 CLR
06:45 35.8 °F 34.5 °F 29.94 in Calm     95 % 0.00 in 0.0 W/m2 CLR
06:50 35.8 °F 34.5 °F 29.94 in Calm     95 % 0.00 in 0.0 W/m2 CLR
06:55 35.8 °F 34.5 °F 29.95 in Calm     95 % 0.00 in 0.0 W/m2 CLR
07:00 35.8 °F 34.5 °F 29.94 in Calm     95 % 0.00 in 0.0 W/m2 CLR
07:05 35.8 °F 34.5 °F 29.94 in Calm     95 % 0.00 in 0.0 W/m2 OVC
07:10 35.9 °F 34.6 °F 29.94 in Calm     95 % 0.00 in 0.0 W/m2 OVC
07:15 35.9 °F 34.6 °F 29.94 in Calm     95 % 0.00 in 0.0 W/m2 OVC
07:20 35.8 °F 34.5 °F 29.95 in Calm     95 % 0.00 in 0.0 W/m2 OVC
07:25 35.9 °F 34.6 °F 29.95 in Calm     95 % 0.00 in 0.0 W/m2 OVC
07:30 35.9 °F 34.6 °F 29.95 in Calm     95 % 0.00 in 0.0 W/m2 OVC
07:35 36.0 °F 34.7 °F 29.94 in Calm     95 % 0.00 in 0.0 W/m2 OVC
07:40 36.0 °F 34.7 °F 29.95 in Calm     95 % 0.00 in 0.0 W/m2 OVC
07:45 35.9 °F 34.6 °F 29.95 in Calm     95 % 0.00 in 5.0 W/m2 SCT
07:50 36.0 °F 34.7 °F 29.95 in Calm     95 % 0.00 in 7.0 W/m2 BKN
07:55 36.0 °F 34.7 °F 29.95 in Calm     95 % 0.00 in 11.0 W/m2 BKN
08:00 36.1 °F 34.8 °F 29.95 in Calm     95 % 0.00 in 14.0 W/m2 BKN
08:05 36.1 °F 34.8 °F 29.95 in Calm     95 % 0.00 in 16.0 W/m2 BKN
08:10 36.2 °F 34.9 °F 29.96 in Calm     95 % 0.00 in 16.0 W/m2 BKN
08:15 36.2 °F 34.9 °F 29.96 in Calm     95 % 0.00 in 21.0 W/m2 BKN
08:20 36.3 °F 35.3 °F 29.96 in Calm     96 % 0.00 in 28.0 W/m2 BKN
08:25 36.4 °F 35.1 °F 29.96 in Calm     95 % 0.00 in 23.0 W/m2 OVC
08:30 36.6 °F 35.6 °F 29.97 in Calm     96 % 0.00 in 26.0 W/m2 OVC
08:35 36.7 °F 35.4 °F 29.97 in Calm   1.0 mph 95 % 0.00 in 33.0 W/m2 OVC
08:40 36.8 °F 35.5 °F 29.97 in Calm   1.0 mph 95 % 0.00 in 37.0 W/m2 OVC
08:45 36.9 °F 35.6 °F 29.97 in Calm     95 % 0.00 in 35.0 W/m2 OVC
08:50 37.0 °F 35.7 °F 29.97 in Calm     95 % 0.00 in 44.0 W/m2 BKN
08:55 37.3 °F 36.2 °F 29.97 in Calm   1.0 mph 96 % 0.00 in 60.0 W/m2 BKN
09:00 37.4 °F 36.1 °F 29.97 in Calm     95 % 0.00 in 74.0 W/m2 BKN
09:05 37.4 °F 36.1 °F 29.96 in Calm     95 % 0.00 in 83.0 W/m2 BKN
09:09 37.7 °F 36.7 °F 29.96 in Calm   2.0 mph 96 % 0.00 in 86.0 W/m2 RA
09:14 37.8 °F 36.5 °F 29.96 in North 2.0 mph 4.0 mph 95 % 0.00 in 107.0 W/m2 RA
09:23 38.0 °F 36.7 °F 29.96 in Calm     95 % 0.00 in 167.0 W/m2 FEW
09:28 38.2 °F 36.9 °F 29.96 in North 0.5 mph 2.3 mph 95 % 0.00 in 216.0 W/m2 CLR
09:32 38.8 °F 37.8 °F 29.96 in North 1.7 mph 3.5 mph 96 % 0.00 in 153.0 W/m2 FEW
09:38 38.6 °F 37.3 °F 29.96 in North 0.2 mph 3.5 mph 95 % 0.00 in 102.0 W/m2 BKN
09:43 38.5 °F 37.2 °F 29.97 in Calm   1.0 mph 95 % 0.00 in 100.0 W/m2 BKN
09:48 38.6 °F 37.3 °F 29.96 in Calm     95 % 0.00 in 142.0 W/m2 SCT
09:53 39.1 °F 37.8 °F 29.96 in Calm     95 % 0.00 in 232.0 W/m2 CLR
09:58 39.6 °F 38.3 °F 29.96 in Calm     95 % 0.00 in 144.0 W/m2 FEW
10:03 39.5 °F 38.2 °F 29.97 in North 0.2 mph   95 % 0.00 in 134.0 W/m2 BKN
10:08 39.6 °F 38.3 °F 29.97 in NNW 2.2 mph 3.5 mph 95 % 0.00 in 158.0 W/m2 SCT
10:13 39.8 °F 38.5 °F 29.96 in NNW 0.8 mph 3.5 mph 95 % 0.00 in 204.0 W/m2 SCT
10:18 39.9 °F 38.6 °F 29.96 in North 1.6 mph 3.5 mph 95 % 0.00 in 229.0 W/m2 FEW
10:23 40.1 °F 38.8 °F 29.96 in North 1.5 mph 3.5 mph 95 % 0.00 in 346.0 W/m2 CLR
10:28 40.5 °F 39.2 °F 29.96 in NNE 2.4 mph 3.5 mph 95 % 0.00 in 353.0 W/m2 CLR
10:34 40.6 °F 39.3 °F 29.96 in NNE 1.5 mph 4.6 mph 95 % 0.00 in 264.0 W/m2 FEW
10:39 41.0 °F 39.7 °F 29.96 in NNE 2.2 mph 3.5 mph 95 % 0.00 in 225.0 W/m2 SCT
10:44 41.3 °F 40.0 °F 29.96 in North 2.3 mph 4.6 mph 95 % 0.00 in 278.0 W/m2 FEW
10:49 41.4 °F 39.8 °F 29.96 in NNW 3.7 mph 5.8 mph 94 % 0.00 in 360.0 W/m2 CLR
10:54 42.1 °F 40.5 °F 29.95 in North 1.5 mph 3.5 mph 94 % 0.00 in 308.0 W/m2 CLR
11:02 41.9 °F 40.0 °F 29.95 in North 1.7 mph 3.5 mph 93 % 0.00 in 199.0 W/m2 SCT
11:08 41.8 °F 39.9 °F 29.95 in North 1.6 mph 3.5 mph 93 % 0.00 in 199.0 W/m2 SCT
11:13 41.9 °F 40.0 °F 29.95 in NNE 3.0 mph 4.0 mph 93 % 0.00 in 192.0 W/m2 SCT
11:18 41.9 °F 40.0 °F 29.95 in Calm     93 % 0.00 in 186.0 W/m2 SCT
11:23 41.8 °F 39.9 °F 29.94 in NNE 1.4 mph 4.0 mph 93 % 0.00 in 181.0 W/m2 BKN
11:28 41.5 °F 39.3 °F 29.94 in NNE 1.0 mph 2.3 mph 92 % 0.00 in 260.0 W/m2 SCT
11:33 41.5 °F 39.3 °F 29.94 in Calm   2.0 mph 92 % 0.00 in 279.0 W/m2 SCT
11:38 41.8 °F 39.6 °F 29.94 in Calm     92 % 0.00 in 323.0 W/m2 FEW
11:43 42.0 °F 39.8 °F 29.93 in NNE 0.1 mph 3.5 mph 92 % 0.00 in 304.0 W/m2 FEW
11:48 41.8 °F 39.6 °F 29.94 in Calm   2.3 mph 92 % 0.00 in 272.0 W/m2 SCT
11:49 41.8 °F 39.6 °F 29.94 in Calm   2.3 mph 92 % 0.00 in 272.0 W/m2 SCT
11:54 42.3 °F 40.1 °F 29.94 in NNE 0.3 mph 3.0 mph 92 % 0.00 in 292.0 W/m2 FEW
11:59 42.5 °F 40.3 °F 29.94 in NNE 0.4 mph 3.5 mph 92 % 0.00 in 181.0 W/m2 SCT
12:04 42.5 °F 40.3 °F 29.94 in NNE 0.4 mph 2.3 mph 92 % 0.00 in 262.0 W/m2 SCT
12:09 42.5 °F 40.1 °F 29.94 in NE 0.3 mph 2.3 mph 91 % 0.00 in 308.0 W/m2 FEW
12:14 42.8 °F 40.4 °F 29.94 in Calm     91 % 0.00 in 239.0 W/m2 SCT
12:19 43.0 °F 40.6 °F 29.94 in NE 0.1 mph 1.2 mph 91 % 0.00 in 146.0 W/m2 BKN
12:24 43.5 °F 41.0 °F 29.94 in Calm     91 % 0.00 in 141.0 W/m2 BKN
12:29 43.5 °F 41.0 °F 29.94 in NNE 1.8 mph 4.0 mph 91 % 0.00 in 144.0 W/m2 BKN
12:34 43.5 °F 40.8 °F 29.94 in NNE 1.9 mph 3.5 mph 90 % 0.00 in 130.0 W/m2 BKN
12:39 43.5 °F 40.8 °F 29.94 in NNE 3.4 mph 4.6 mph 90 % 0.00 in 111.0 W/m2 BKN
12:44 43.5 °F 40.8 °F 29.94 in NNE 2.0 mph 3.5 mph 90 % 0.00 in 107.0 W/m2 OVC
12:49 43.5 °F 40.8 °F 29.94 in NNE 1.9 mph 3.5 mph 90 % 0.00 in 90.0 W/m2 OVC
12:54 43.2 °F 40.5 °F 29.94 in NNE 1.9 mph 3.5 mph 90 % 0.00 in 88.0 W/m2 OVC
12:59 43.1 °F 40.4 °F 29.95 in NNE 2.1 mph 3.5 mph 90 % 0.00 in 84.0 W/m2 OVC
13:04 43.1 °F 40.4 °F 29.94 in Calm     90 % 0.00 in 93.0 W/m2 OVC
13:09 43.2 °F 40.5 °F 29.94 in Calm     90 % 0.00 in 102.0 W/m2 OVC
13:14 43.0 °F 40.3 °F 29.94 in Calm     90 % 0.00 in 125.0 W/m2 BKN
13:19 43.3 °F 40.6 °F 29.95 in NNE 0.6 mph 2.3 mph 90 % 0.00 in 134.0 W/m2 BKN
13:24 43.6 °F 40.9 °F 29.94 in NNE 1.0 mph 3.5 mph 90 % 0.00 in 137.0 W/m2 BKN
13:29 43.5 °F 40.8 °F 29.95 in NNE 1.3 mph 3.5 mph 90 % 0.00 in 97.0 W/m2 OVC
13:34 43.4 °F 40.7 °F 29.95 in NNE 1.8 mph 3.5 mph 90 % 0.00 in 111.0 W/m2 BKN
13:39 43.6 °F 40.9 °F 29.95 in Calm     90 % 0.00 in 114.0 W/m2 BKN
13:44 43.7 °F 41.0 °F 29.95 in Calm     90 % 0.00 in 107.0 W/m2 BKN
13:49 43.9 °F 41.2 °F 29.95 in NNE 2.6 mph 4.6 mph 90 % 0.00 in 84.0 W/m2 OVC
13:54 43.9 °F 40.9 °F 29.96 in Calm   1.2 mph 89 % 0.00 in 65.0 W/m2 OVC
13:59 43.8 °F 40.8 °F 29.96 in NNE 0.3 mph 1.2 mph 89 % 0.00 in 62.0 W/m2 OVC
14:04 43.8 °F 40.8 °F 29.96 in NNE 1.3 mph 2.3 mph 89 % 0.00 in 63.0 W/m2 OVC
14:09 43.8 °F 40.8 °F 29.96 in NNE 1.1 mph 4.0 mph 89 % 0.00 in 54.0 W/m2 OVC
14:14 43.7 °F 40.7 °F 29.96 in NNE 1.5 mph 3.5 mph 89 % 0.00 in 42.0 W/m2 OVC
14:19 43.7 °F 40.7 °F 29.96 in NNE 0.2 mph 3.0 mph 89 % 0.00 in 37.0 W/m2 OVC
14:24 43.6 °F 40.6 °F 29.96 in Calm   2.3 mph 89 % 0.00 in 47.0 W/m2 OVC
14:29 43.7 °F 40.7 °F 29.96 in NNE 0.1 mph 2.3 mph 89 % 0.00 in 54.0 W/m2 OVC
14:34 43.8 °F 40.8 °F 29.96 in Calm     89 % 0.00 in 49.0 W/m2 OVC
14:39 44.0 °F 41.0 °F 29.96 in NNE 0.1 mph 1.0 mph 89 % 0.00 in 40.0 W/m2 OVC
14:44 44.2 °F 41.5 °F 29.96 in NNE 1.5 mph 3.0 mph 90 % 0.00 in 39.0 W/m2 OVC
14:49 44.3 °F 41.3 °F 29.97 in NNE 2.5 mph 4.6 mph 89 % 0.00 in 37.0 W/m2 OVC
14:54 44.5 °F 41.5 °F 29.97 in NNE 0.1 mph 1.2 mph 89 % 0.00 in 37.0 W/m2 OVC
15:00 44.7 °F 41.7 °F 29.97 in Calm     89 % 0.00 in 33.0 W/m2 OVC
15:05 44.7 °F 41.7 °F 29.97 in NNW 1.6 mph 4.6 mph 89 % 0.00 in 37.0 W/m2 OVC
15:10 44.8 °F 41.5 °F 29.97 in NW 4.7 mph 5.0 mph 88 % 0.00 in 39.0 W/m2 OVC
15:15 45.0 °F 41.7 °F 29.98 in NNW 1.4 mph 1.4 mph 88 % 0.00 in 44.0 W/m2 OVC
15:20 45.1 °F 41.5 °F 29.97 in NNW 1.8 mph 3.5 mph 87 % 0.00 in 40.0 W/m2 OVC
15:25 45.2 °F 41.3 °F 29.98 in NW 3.9 mph 8.1 mph 86 % 0.00 in 39.0 W/m2 OVC
15:30 45.3 °F 41.4 °F 29.98 in NNW 5.5 mph 8.1 mph 86 % 0.00 in 28.0 W/m2 OVC
15:35 45.3 °F 41.1 °F 29.99 in NNW 3.6 mph 8.1 mph 85 % 0.00 in 21.0 W/m2 OVC
15:40 45.2 °F 41.0 °F 29.99 in NNW 4.7 mph 4.7 mph 85 % 0.00 in 12.0 W/m2 OVC
15:45 45.2 °F 41.0 °F 29.99 in NNW 4.3 mph 6.0 mph 85 % 0.00 in 11.0 W/m2 OVC
15:50 45.1 °F 40.9 °F 30.00 in NW 3.4 mph 3.5 mph 85 % 0.00 in 12.0 W/m2 OVC
15:55 45.1 °F 40.9 °F 30.00 in NNW 0.8 mph 3.5 mph 85 % 0.00 in 12.0 W/m2 OVC
16:00 45.0 °F 40.8 °F 30.00 in NW 0.9 mph 5.8 mph 85 % 0.00 in 11.0 W/m2 OVC
16:05 45.0 °F 40.8 °F 30.00 in NW 5.1 mph 8.1 mph 85 % 0.00 in 11.0 W/m2 OVC
16:10 44.9 °F 40.4 °F 30.00 in NW 2.9 mph 5.0 mph 84 % 0.00 in 9.0 W/m2 OVC
16:15 44.9 °F 40.4 °F 30.00 in NW 0.6 mph 3.5 mph 84 % 0.00 in 7.0 W/m2 OVC
16:20 44.9 °F 40.4 °F 30.01 in NW 1.6 mph 4.6 mph 84 % 0.00 in 9.0 W/m2 OVC
16:25 44.9 °F 40.4 °F 30.01 in WNW 2.9 mph 5.8 mph 84 % 0.00 in 7.0 W/m2 OVC
16:30 44.8 °F 40.3 °F 30.01 in NNW 5.2 mph 10.4 mph 84 % 0.00 in 7.0 W/m2 OVC
16:35 44.8 °F 40.3 °F 30.01 in NW 4.5 mph 5.8 mph 84 % 0.00 in 5.0 W/m2 OVC
16:40 44.7 °F 40.2 °F 30.01 in NW 2.6 mph 5.0 mph 84 % 0.00 in 5.0 W/m2 OVC
16:45 44.7 °F 40.2 °F 30.01 in NW 0.7 mph 5.8 mph 84 % 0.00 in 0.0 W/m2 OVC
16:50 44.7 °F 40.2 °F 30.02 in NNW 1.4 mph 4.6 mph 84 % 0.00 in 0.0 W/m2 OVC
16:55 44.7 °F 40.2 °F 30.02 in NNW 1.0 mph 3.5 mph 84 % 0.00 in 0.0 W/m2 OVC
17:00 44.6 °F 40.1 °F 30.02 in NNW 0.7 mph 4.0 mph 84 % 0.00 in 0.0 W/m2 OVC
17:05 44.5 °F 40.0 °F 30.03 in Calm   2.3 mph 84 % 0.00 in 0.0 W/m2 OVC
17:10 44.4 °F 39.9 °F 30.03 in Calm     84 % 0.00 in 0.0 W/m2 OVC
17:15 44.4 °F 40.2 °F 30.03 in NW 0.8 mph 2.3 mph 85 % 0.00 in 0.0 W/m2 OVC
17:20 44.3 °F 40.1 °F 30.04 in NW 0.1 mph 1.0 mph 85 % 0.00 in 0.0 W/m2 OVC
17:25 44.2 °F 40.0 °F 30.04 in Calm     85 % 0.00 in 0.0 W/m2 OVC
17:30 44.2 °F 40.0 °F 30.05 in NNW 0.4 mph 3.5 mph 85 % 0.00 in 0.0 W/m2 OVC
17:35 44.0 °F 40.1 °F 30.04 in North 0.5 mph 3.5 mph 86 % 0.00 in 0.0 W/m2 CLR
17:40 43.9 °F 40.0 °F 30.05 in North 0.5 mph 3.5 mph 86 % 0.00 in 0.0 W/m2 CLR
17:46 43.8 °F 39.9 °F 30.05 in NNE 2.1 mph 3.5 mph 86 % 0.00 in 0.0 W/m2 CLR
17:51 43.7 °F 39.8 °F 30.05 in North 1.3 mph 4.0 mph 86 % 0.00 in 0.0 W/m2 CLR
17:56 43.7 °F 39.8 °F 30.05 in Calm     86 % 0.00 in 0.0 W/m2 CLR
18:01 43.7 °F 40.1 °F 30.05 in NNW 0.7 mph 3.5 mph 87 % 0.00 in 0.0 W/m2 CLR
18:06 43.5 °F 39.6 °F 30.05 in NNW 1.1 mph 3.5 mph 86 % 0.00 in 0.0 W/m2 CLR
18:11 43.3 °F 39.7 °F 30.05 in North 3.3 mph 4.0 mph 87 % 0.00 in 0.0 W/m2 CLR
18:16 43.1 °F 39.5 °F 30.05 in NNE 0.9 mph 3.5 mph 87 % 0.00 in 0.0 W/m2 CLR
18:21 43.0 °F 39.4 °F 30.06 in NNE 0.5 mph 2.3 mph 87 % 0.00 in 0.0 W/m2 CLR
18:26 43.0 °F 39.7 °F 30.06 in Calm     88 % 0.00 in 0.0 W/m2 CLR
18:31 43.0 °F 39.7 °F 30.06 in North 0.8 mph 3.5 mph 88 % 0.00 in 0.0 W/m2 CLR
18:36 42.8 °F 39.5 °F 30.06 in Calm     88 % 0.00 in 0.0 W/m2 CLR
18:41 42.8 °F 39.5 °F 30.06 in Calm     88 % 0.00 in 0.0 W/m2 CLR
18:46 42.8 °F 39.5 °F 30.06 in Calm     88 % 0.00 in 0.0 W/m2 CLR
18:51 42.7 °F 39.7 °F 30.06 in Calm     89 % 0.00 in 0.0 W/m2 CLR
18:56 42.6 °F 39.6 °F 30.07 in Calm     89 % 0.00 in 0.0 W/m2 CLR
19:01 42.5 °F 39.5 °F 30.07 in Calm     89 % 0.00 in 0.0 W/m2 CLR
19:06 42.5 °F 39.5 °F 30.07 in Calm     89 % 0.00 in 0.0 W/m2 CLR
19:11 42.5 °F 39.5 °F 30.07 in Calm     89 % 0.00 in 0.0 W/m2 CLR
19:16 42.4 °F 39.4 °F 30.07 in Calm     89 % 0.00 in 0.0 W/m2 CLR
19:21 42.4 °F 39.7 °F 30.06 in Calm     90 % 0.00 in 0.0 W/m2 CLR
19:26 42.4 °F 39.7 °F 30.06 in Calm     90 % 0.00 in 0.0 W/m2 CLR
19:31 42.4 °F 39.7 °F 30.06 in Calm     90 % 0.00 in 0.0 W/m2 CLR
19:36 42.4 °F 39.7 °F 30.06 in Calm     90 % 0.00 in 0.0 W/m2 CLR
19:41 42.4 °F 39.7 °F 30.06 in Calm     90 % 0.00 in 0.0 W/m2 CLR
19:46 42.4 °F 39.7 °F 30.06 in Calm     90 % 0.00 in 0.0 W/m2 CLR
19:51 42.3 °F 39.6 °F 30.06 in Calm     90 % 0.00 in 0.0 W/m2 CLR
19:56 42.3 °F 39.6 °F 30.06 in Calm     90 % 0.00 in 0.0 W/m2 CLR
20:01 42.1 °F 39.4 °F 30.06 in Calm     90 % 0.00 in 0.0 W/m2 CLR
20:06 42.2 °F 39.5 °F 30.05 in Calm     90 % 0.00 in 0.0 W/m2 CLR
20:11 42.1 °F 39.4 °F 30.06 in Calm     90 % 0.00 in 0.0 W/m2 CLR
20:16 42.1 °F 39.4 °F 30.06 in Calm     90 % 0.00 in 0.0 W/m2 CLR
20:21 42.0 °F 39.3 °F 30.06 in Calm     90 % 0.00 in 0.0 W/m2 CLR
20:26 42.0 °F 39.3 °F 30.06 in Calm     90 % 0.00 in 0.0 W/m2 CLR
20:31 42.0 °F 39.3 °F 30.06 in Calm     90 % 0.00 in 0.0 W/m2 CLR
20:36 41.9 °F 39.5 °F 30.06 in Calm     91 % 0.00 in 0.0 W/m2 CLR
20:41 41.9 °F 39.2 °F 30.05 in Calm     90 % 0.00 in 0.0 W/m2 CLR
20:46 41.9 °F 39.2 °F 30.05 in Calm     90 % 0.00 in 0.0 W/m2 CLR
20:51 41.8 °F 39.1 °F 30.05 in Calm     90 % 0.00 in 0.0 W/m2 CLR
20:56 41.8 °F 39.1 °F 30.06 in Calm     90 % 0.00 in 0.0 W/m2 CLR
21:01 41.8 °F 39.1 °F 30.06 in Calm     90 % 0.00 in 0.0 W/m2 CLR
21:06 41.8 °F 39.4 °F 30.06 in Calm     91 % 0.00 in 0.0 W/m2 CLR
21:11 41.7 °F 39.3 °F 30.06 in Calm     91 % 0.00 in 0.0 W/m2 CLR
21:16 41.8 °F 39.4 °F 30.07 in Calm     91 % 0.00 in 0.0 W/m2 CLR
21:21 41.8 °F 39.4 °F 30.07 in Calm     91 % 0.00 in 0.0 W/m2 CLR
21:27 41.9 °F 39.5 °F 30.07 in Calm     91 % 0.00 in 0.0 W/m2 CLR
21:32 42.0 °F 39.6 °F 30.07 in Calm     91 % 0.00 in 0.0 W/m2 CLR
21:37 41.9 °F 39.5 °F 30.06 in Calm     91 % 0.00 in 0.0 W/m2 CLR
21:42 41.7 °F 39.3 °F 30.06 in Calm     91 % 0.00 in 0.0 W/m2 CLR
21:47 41.7 °F 39.3 °F 30.06 in Calm     91 % 0.00 in 0.0 W/m2 CLR
21:52 41.7 °F 39.3 °F 30.05 in Calm     91 % 0.00 in 0.0 W/m2 CLR
21:57 41.7 °F 39.3 °F 30.05 in Calm     91 % 0.00 in 0.0 W/m2 CLR
22:02 41.8 °F 39.4 °F 30.06 in Calm     91 % 0.00 in 0.0 W/m2 CLR
22:07 41.5 °F 39.1 °F 30.05 in Calm     91 % 0.00 in 0.0 W/m2 CLR
22:12 41.5 °F 39.1 °F 30.05 in Calm     91 % 0.00 in 0.0 W/m2 CLR
22:17 41.5 °F 39.1 °F 30.05 in Calm     91 % 0.00 in 0.0 W/m2 CLR
22:22 41.3 °F 39.2 °F 30.05 in Calm     92 % 0.00 in 0.0 W/m2 CLR
22:27 41.2 °F 39.1 °F 30.05 in Calm     92 % 0.00 in 0.0 W/m2 CLR
22:32 41.1 °F 39.0 °F 30.05 in Calm     92 % 0.00 in 0.0 W/m2 CLR
22:37 41.1 °F 39.0 °F 30.05 in Calm     92 % 0.00 in 0.0 W/m2 CLR
22:42 41.2 °F 39.1 °F 30.06 in Calm     92 % 0.00 in 0.0 W/m2 CLR
22:47 41.1 °F 39.0 °F 30.05 in Calm     92 % 0.00 in 0.0 W/m2 CLR
22:52 41.2 °F 39.1 °F 30.05 in Calm     92 % 0.00 in 0.0 W/m2 CLR
22:57 41.1 °F 39.0 °F 30.05 in Calm     92 % 0.00 in 0.0 W/m2 CLR
23:02 41.0 °F 38.9 °F 30.05 in Calm     92 % 0.00 in 0.0 W/m2 CLR
23:07 41.0 °F 39.1 °F 30.05 in Calm     93 % 0.00 in 0.0 W/m2 CLR
23:12 41.2 °F 39.3 °F 30.05 in Calm     93 % 0.00 in 0.0 W/m2 CLR
23:17 41.1 °F 39.2 °F 30.05 in Calm     93 % 0.00 in 0.0 W/m2 CLR
23:22 41.1 °F 39.0 °F 30.05 in Calm     92 % 0.00 in 0.0 W/m2 CLR
23:27 41.0 °F 38.9 °F 30.05 in Calm     92 % 0.00 in 0.0 W/m2 CLR
23:32 41.0 °F 39.1 °F 30.05 in Calm     93 % 0.00 in 0.0 W/m2 CLR
23:37 41.0 °F 39.1 °F 30.05 in Calm     93 % 0.00 in 0.0 W/m2 CLR
23:42 41.1 °F 39.2 °F 30.05 in Calm     93 % 0.00 in 0.0 W/m2 CLR
23:47 41.2 °F 39.3 °F 30.05 in Calm     93 % 0.00 in 0.0 W/m2 CLR
23:52 41.1 °F 39.2 °F 30.05 in Calm     93 % 0.00 in 0.0 W/m2 CLR
23:57 41.0 °F 39.1 °F 30.05 in Calm     93 % 0.00 in 0.0 W/m2 CLR
Air Products Campus Weather
Compliments of Weather Underground - 3.5 mb